createdAt,value
2022-10-21T00:09:15.580Z,29.40
2022-10-21T00:14:22.563Z,23.40
2022-10-21T00:19:29.547Z,30.10
2022-10-21T00:24:36.762Z,27.80
2022-10-21T00:29:43.807Z,22.80
2022-10-21T00:34:50.724Z,28.10
2022-10-21T00:39:57.801Z,28.60
2022-10-21T00:45:24.457Z,26.30
2022-10-21T00:50:40.325Z,26.60
2022-10-21T00:55:52.695Z,25.60
2022-10-21T01:01:02.134Z,25.40
2022-10-21T01:06:11.759Z,25.10
2022-10-21T01:11:21.446Z,22.30
2022-10-21T01:16:37.161Z,24.30
2022-10-21T01:21:49.439Z,24.30
2022-10-21T01:27:30.794Z,26.20
2022-10-21T01:32:49.107Z,29.10
2022-10-21T01:38:08.635Z,27.80
2022-10-21T01:43:22.312Z,23.40
2022-10-21T01:48:34.791Z,20.90
2022-10-21T01:53:46.907Z,25.90
2022-10-21T01:58:55.340Z,24.00
2022-10-21T02:04:06.061Z,29.20
2022-10-21T02:09:13.226Z,27.30
2022-10-21T02:24:48.731Z,30.30
2022-10-21T02:30:01.004Z,28.70
2022-10-21T02:35:18.715Z,28.00
2022-10-21T02:40:32.007Z,26.70
2022-10-21T02:45:40.126Z,29.10
2022-10-21T02:50:47.376Z,25.50
2022-10-21T02:55:54.249Z,23.80
2022-10-21T03:01:01.437Z,25.90
2022-10-21T03:11:14.806Z,24.40
2022-10-21T03:21:27.953Z,24.20
2022-10-21T03:26:35.077Z,27.80
2022-10-21T03:31:42.469Z,31.80
2022-10-21T03:36:49.489Z,33.30
2022-10-21T03:41:57.014Z,27.10
2022-10-21T03:47:03.905Z,27.30
2022-10-21T03:52:10.957Z,31.20
2022-10-21T03:57:18.054Z,30.40
2022-10-21T04:02:25.251Z,32.40
2022-10-21T04:07:32.205Z,29.10
2022-10-21T04:12:40.061Z,27.20
2022-10-21T04:17:48.156Z,32.50
2022-10-21T04:22:55.492Z,30.50
2022-10-21T04:28:03.033Z,32.20
2022-10-21T04:33:10.602Z,33.70
2022-10-21T04:38:17.699Z,27.40
2022-10-21T04:43:24.869Z,33.80
2022-10-21T04:48:31.996Z,35.30
2022-10-21T04:58:44.724Z,32.00
2022-10-21T05:03:51.977Z,35.40
2022-10-21T05:08:58.900Z,34.40
2022-10-21T05:14:06.152Z,33.80
2022-10-21T05:24:19.726Z,32.50
2022-10-21T05:34:32.384Z,34.70
2022-10-21T05:44:51.355Z,32.00
2022-10-21T05:49:58.592Z,39.30
2022-10-21T05:55:06.508Z,37.60
2022-10-21T06:00:15.660Z,32.10
2022-10-21T06:05:23.252Z,36.90
2022-10-21T06:10:30.270Z,35.10
2022-10-21T06:15:37.893Z,37.10
2022-10-21T06:20:44.825Z,30.00
2022-10-21T06:26:00.228Z,31.60
2022-10-21T06:31:08.267Z,32.30
2022-10-21T06:36:15.384Z,43.90
2022-10-21T06:41:22.470Z,39.00
2022-10-21T06:46:30.963Z,34.70
2022-10-21T06:51:37.813Z,33.90
2022-10-21T06:56:44.815Z,35.00
2022-10-21T07:02:00.529Z,33.40
2022-10-21T07:07:08.395Z,35.50
2022-10-21T07:17:21.341Z,32.20
2022-10-21T07:37:21.318Z,38.80
2022-10-21T07:42:28.750Z,34.20
2022-10-21T07:47:36.284Z,33.90
2022-10-21T07:52:55.971Z,34.10
2022-10-21T07:58:11.291Z,36.90
2022-10-21T08:03:18.648Z,35.00
2022-10-21T08:13:31.990Z,30.20
2022-10-21T08:18:38.818Z,32.10
2022-10-21T08:23:46.460Z,39.10
2022-10-21T08:28:53.671Z,42.30
2022-10-21T08:34:01.316Z,37.60
2022-10-21T08:39:08.664Z,41.20
2022-10-21T08:49:31.479Z,37.40
2022-10-21T08:54:47.041Z,34.00
2022-10-21T08:59:54.283Z,39.90
2022-10-21T09:10:26.812Z,36.40
2022-10-21T09:15:40.860Z,37.40
2022-10-21T09:21:01.931Z,37.60
2022-10-21T09:26:26.581Z,37.40
2022-10-21T09:31:36.890Z,34.40
2022-10-21T09:36:48.752Z,35.20
2022-10-21T09:42:01.690Z,43.40
2022-10-21T09:47:22.174Z,38.70
2022-10-21T09:52:33.775Z,36.20
2022-10-21T09:57:47.373Z,42.10
2022-10-21T10:02:54.211Z,45.90
2022-10-21T10:08:01.367Z,54.30
2022-10-21T10:13:17.616Z,50.80
2022-10-21T10:18:26.647Z,47.80
2022-10-21T10:23:43.728Z,53.00
2022-10-21T10:28:58.121Z,41.70
2022-10-21T10:34:08.106Z,38.20
2022-10-21T10:39:24.699Z,38.30
2022-10-21T10:44:37.818Z,23.50
2022-10-21T10:49:45.402Z,26.70
2022-10-21T10:55:18.690Z,23.80
2022-10-21T11:00:26.367Z,20.90
2022-10-21T11:05:38.423Z,22.70
2022-10-21T11:10:49.475Z,21.30
2022-10-21T11:16:11.662Z,21.10
2022-10-21T11:21:34.284Z,25.10
2022-10-21T11:26:51.525Z,19.70
2022-10-21T11:37:32.512Z,15.90
2022-10-21T11:42:45.104Z,21.20
2022-10-21T11:47:59.657Z,20.50
2022-10-21T11:53:28.042Z,19.10
2022-10-21T11:58:46.308Z,19.70
2022-10-21T12:04:15.241Z,24.30
2022-10-21T12:09:27.985Z,22.10
2022-10-21T12:14:38.569Z,22.60
2022-10-21T12:19:53.348Z,21.20
2022-10-21T12:25:20.054Z,25.30
2022-10-21T12:30:55.536Z,20.50
2022-10-21T12:36:20.025Z,20.70
2022-10-21T12:41:35.523Z,17.30
2022-10-21T12:46:45.114Z,16.50
2022-10-21T12:51:56.023Z,18.90
2022-10-21T12:57:06.184Z,15.80
2022-10-21T13:02:29.839Z,18.60
2022-10-21T13:07:40.403Z,17.50
2022-10-21T13:12:49.257Z,16.90
2022-10-21T13:17:57.773Z,18.90
2022-10-21T13:23:32.877Z,16.50
2022-10-21T13:28:40.160Z,15.70
2022-10-21T13:33:54.845Z,15.50
2022-10-21T13:39:07.710Z,16.60
2022-10-21T13:44:30.103Z,15.80
2022-10-21T13:49:37.065Z,14.60
2022-10-21T13:54:44.281Z,13.50
2022-10-21T14:00:03.178Z,16.90
2022-10-21T14:05:37.199Z,15.60
2022-10-21T14:10:48.338Z,14.10
2022-10-21T14:15:55.881Z,18.90
2022-10-21T14:21:04.096Z,14.70
2022-10-21T14:26:11.766Z,16.00
2022-10-21T14:41:07.089Z,12.70
2022-10-21T14:46:15.937Z,12.70
2022-10-21T14:51:25.583Z,9.90
2022-10-21T14:56:36.207Z,8.60
2022-10-21T15:01:45.566Z,9.70
2022-10-21T15:07:03.786Z,12.70
2022-10-21T15:12:22.143Z,11.50
2022-10-21T15:17:29.271Z,12.80
2022-10-21T15:22:38.330Z,13.20
2022-10-21T15:27:46.096Z,12.70
2022-10-21T15:32:55.382Z,15.70
2022-10-21T15:38:02.649Z,12.30
2022-10-21T15:43:12.343Z,12.40
2022-10-21T15:48:23.321Z,13.60
2022-10-21T15:53:30.960Z,15.80
2022-10-21T15:58:38.086Z,21.90
2022-10-21T16:03:46.050Z,13.90
2022-10-21T16:08:54.030Z,15.90
2022-10-21T16:14:01.367Z,17.60
2022-10-21T16:19:08.856Z,18.30
2022-10-21T16:24:18.843Z,21.30
2022-10-21T16:29:27.079Z,17.40
2022-10-21T16:34:34.362Z,19.20
2022-10-21T16:39:41.586Z,17.80
2022-10-21T16:44:50.198Z,20.60
2022-10-21T16:50:02.221Z,21.30
2022-10-21T16:55:12.115Z,19.20
2022-10-21T17:00:20.427Z,19.50
2022-10-21T17:05:29.298Z,20.20
2022-10-21T17:10:36.582Z,19.40
2022-10-21T17:15:44.523Z,20.40
2022-10-21T17:20:54.065Z,21.50
2022-10-21T17:26:02.088Z,19.20
2022-10-21T17:31:11.347Z,18.60
2022-10-21T17:36:19.866Z,24.60
2022-10-21T17:41:27.285Z,23.30
2022-10-21T17:46:34.816Z,21.10
2022-10-21T17:51:42.553Z,23.30
2022-10-21T17:56:52.435Z,28.60
2022-10-21T18:02:01.940Z,20.80
2022-10-21T18:12:35.757Z,29.80
2022-10-21T18:17:43.402Z,27.60
2022-10-21T18:22:53.055Z,30.20
2022-10-21T18:28:00.327Z,30.00
2022-10-21T18:33:07.836Z,29.80
2022-10-21T18:38:15.928Z,29.30
2022-10-21T18:43:23.384Z,29.90
2022-10-21T18:48:30.684Z,27.40
2022-10-21T18:53:39.252Z,27.40
2022-10-21T18:58:47.879Z,25.20
2022-10-21T19:03:56.475Z,27.30
2022-10-21T19:09:04.999Z,28.30
2022-10-21T19:14:14.272Z,33.90
2022-10-21T19:19:21.904Z,29.00
2022-10-21T19:24:29.183Z,25.90
2022-10-21T19:29:36.838Z,28.90
2022-10-21T19:34:44.433Z,33.50
2022-10-21T19:39:51.812Z,37.80
2022-10-21T19:44:58.794Z,29.90
2022-10-21T19:55:12.230Z,32.40
2022-10-21T20:00:19.677Z,31.60
2022-10-21T20:05:26.962Z,26.40
2022-10-21T20:10:34.712Z,32.30
2022-10-21T20:15:49.410Z,28.40
2022-10-21T20:20:57.021Z,32.10
2022-10-21T20:26:05.218Z,32.80
2022-10-21T20:31:14.560Z,31.40
2022-10-21T20:36:24.162Z,35.80
2022-10-21T20:41:34.437Z,31.20
2022-10-21T20:46:41.484Z,30.30
2022-10-21T20:51:48.718Z,25.30
2022-10-21T21:02:01.283Z,29.90
2022-10-21T21:12:13.699Z,27.10
2022-10-21T21:21:23.883Z,35.40
2022-10-21T21:26:34.478Z,37.30
2022-10-21T21:31:42.610Z,43.10
2022-10-21T21:36:49.887Z,36.70
2022-10-21T21:41:57.118Z,38.20
2022-10-21T21:47:04.116Z,48.40
2022-10-21T21:57:34.115Z,43.90
2022-10-21T22:02:41.271Z,41.20
2022-10-21T22:12:56.582Z,45.50
2022-10-21T22:18:03.598Z,46.80
2022-10-21T22:28:16.140Z,50.80
2022-10-21T22:33:23.112Z,51.80
2022-10-21T22:38:30.506Z,39.80
2022-10-21T22:43:37.649Z,51.10
2022-10-21T22:53:55.153Z,47.40
2022-10-21T22:59:03.967Z,47.90
2022-10-21T23:04:12.358Z,55.00
2022-10-21T23:09:19.864Z,48.90
2022-10-21T23:14:27.120Z,48.70
2022-10-21T23:19:34.603Z,47.60
2022-10-21T23:24:41.686Z,47.10
2022-10-21T23:29:48.712Z,48.10
2022-10-21T23:34:55.869Z,45.10
2022-10-21T23:40:02.993Z,49.00
2022-10-21T23:50:16.799Z,53.60
2022-10-21T23:55:23.824Z,56.10
